Time;durP1;ratioP1;P1;durP2;ratioP2;P2;SDS_P1;SDS_P2;PMS_P1;PMS_P2;Temp;Humidity;BMP_temperature;BMP_pressure;BME280_temperature;BME280_humidity;BME280_pressure;Samples;Min_cycle;Max_cycle;Signal;HPM_P1;HPM_P2
2023/04/10 11:42:33;;;;;;;;;;;22.50;49.30;;;;;;4766482;54;20062;-29
2023/04/10 11:47:34;;;;;;;;;;;22.50;49.90;;;;;;4858067;54;20127;-27
2023/04/10 11:52:34;;;;;;;;;;;22.40;49.80;;;;;;4821974;54;20122;-26
2023/04/10 11:57:35;;;;;;;;;;;22.40;50.30;;;;;;4801097;58;20314;-25
2023/04/10 12:02:48;;;;;;;;;;;22.30;50.50;;;;;;4819953;54;20110;-23
2023/04/10 12:07:49;;;;;;;;;;;22.30;50.60;;;;;;4814632;54;20087;-25
2023/04/10 12:12:50;;;;;;;;;;;22.30;50.80;;;;;;4818175;54;20075;-23
2023/04/10 12:17:51;;;;;;;;;;;22.40;51.10;;;;;;4800628;58;20083;-23
2023/04/10 12:22:52;;;;;;;;;;;22.40;51.20;;;;;;4810076;54;20060;-23
2023/04/10 12:27:53;;;;;;;;;;;22.40;51.20;;;;;;4801542;58;20123;-28
2023/04/10 12:32:54;;;;;;;;;;;22.50;51.20;;;;;;4809436;54;20323;-25
2023/04/10 12:37:55;;;;;;;;;;;22.50;51.20;;;;;;4772054;54;20116;-29
2023/04/10 12:42:56;;;;;;;;;;;22.50;51.10;;;;;;4766354;55;20108;-22
2023/04/10 12:47:57;;;;;;;;;;;22.50;51.00;;;;;;4776904;55;20303;-25
2023/04/10 12:53:06;;;;;;;;;;;22.50;50.90;;;;;;4782320;55;20148;-27
2023/04/10 12:58:20;;;;;;;;;;;22.60;51.00;;;;;;4754636;55;20322;-26
2023/04/10 13:03:21;;;;;;;;;;;22.60;50.90;;;;;;4745460;55;20318;-22
2023/04/10 13:08:21;;;;;;;;;;;22.60;50.90;;;;;;4801998;55;20184;-25
2023/04/10 13:13:22;;;;;;;;;;;22.60;50.90;;;;;;4762252;55;20338;-26
2023/04/10 13:18:23;;;;;;;;;;;22.60;50.80;;;;;;4761781;55;21066;-23
2023/04/10 13:23:25;;;;;;;;;;;22.60;50.70;;;;;;4744350;58;20287;-25
2023/04/10 13:28:26;;;;;;;;;;;22.60;50.70;;;;;;4745081;58;20092;-18
2023/04/10 13:33:26;;;;;;;;;;;22.70;50.60;;;;;;4784706;55;20351;-26
2023/04/10 13:38:27;;;;;;;;;;;22.70;50.70;;;;;;4743837;58;20825;-22
2023/04/10 13:43:27;;;;;;;;;;;22.70;50.60;;;;;;4763647;55;20167;-24
2023/04/10 13:48:28;;;;;;;;;;;22.70;50.60;;;;;;4782190;55;20076;-29
2023/04/10 13:53:29;;;;;;;;;;;22.80;50.50;;;;;;4781148;55;20115;-24
2023/04/10 13:58:32;;;;;;;;;;;22.80;50.50;;;;;;4761089;55;20235;-26
2023/04/10 14:03:33;;;;;;;;;;;22.70;51.00;;;;;;4758211;55;20299;-25
2023/04/10 14:08:34;;;;;;;;;;;22.70;50.90;;;;;;4773145;55;20140;-20
2023/04/10 14:13:34;;;;;;;;;;;22.70;50.90;;;;;;4816362;55;20400;-19
2023/04/10 14:18:36;;;;;;;;;;;22.60;50.90;;;;;;4745633;58;20326;-22
2023/04/10 14:23:36;;;;;;;;;;;22.50;51.30;;;;;;4760261;55;20910;-26
2023/04/10 14:28:37;;;;;;;;;;;22.50;51.00;;;;;;4752357;55;20148;-26
2023/04/10 14:33:38;;;;;;;;;;;22.40;51.10;;;;;;4745889;58;20100;-23
2023/04/10 14:38:41;;;;;;;;;;;22.30;51.20;;;;;;4805948;54;20112;-24
2023/04/10 14:43:42;;;;;;;;;;;22.20;51.20;;;;;;4762427;55;20099;-21
2023/04/10 14:48:42;;;;;;;;;;;22.20;51.30;;;;;;4745917;58;20176;-25
2023/04/10 14:53:44;;;;;;;;;;;22.10;51.30;;;;;;4746223;58;20283;-28
2023/04/10 14:58:46;;;;;;;;;;;22.10;51.40;;;;;;4765649;55;20392;-24
2023/04/10 15:03:47;;;;;;;;;;;22.00;51.40;;;;;;4746152;58;20298;-25
2023/04/10 15:08:48;;;;;;;;;;;22.00;51.50;;;;;;4824268;55;20370;-24
2023/04/10 15:13:49;;;;;;;;;;;21.90;51.50;;;;;;4812025;55;20171;-26
2023/04/10 15:18:49;;;;;;;;;;;21.90;51.60;;;;;;4745948;58;20134;-27
2023/04/10 15:23:50;;;;;;;;;;;21.90;51.70;;;;;;4764158;55;20136;-24
2023/04/10 15:28:51;;;;;;;;;;;21.80;51.60;;;;;;4804855;55;20080;-25
2023/04/10 15:33:51;;;;;;;;;;;21.80;51.70;;;;;;4785459;55;20382;-23
2023/04/10 15:38:52;;;;;;;;;;;21.80;51.70;;;;;;4744839;58;20358;-25
2023/04/10 15:43:53;;;;;;;;;;;21.70;51.70;;;;;;4746100;58;20072;-27
2023/04/10 15:48:54;;;;;;;;;;;21.70;51.70;;;;;;4745987;58;20213;-24
2023/04/10 15:53:54;;;;;;;;;;;21.70;51.70;;;;;;4745616;58;20112;-24
2023/04/10 15:58:55;;;;;;;;;;;21.70;51.80;;;;;;4798879;55;20076;-22
2023/04/10 16:03:56;;;;;;;;;;;21.60;51.80;;;;;;4827107;55;20088;-26
2023/04/10 16:08:56;;;;;;;;;;;21.60;51.50;;;;;;4744225;58;20131;-25
2023/04/10 16:13:57;;;;;;;;;;;21.60;49.50;;;;;;4747185;55;20370;-25
2023/04/10 16:18:59;;;;;;;;;;;21.60;49.10;;;;;;4756292;55;20364;-26
2023/04/10 16:23:59;;;;;;;;;;;21.60;49.20;;;;;;4744913;56;20128;-26
2023/04/10 16:29:00;;;;;;;;;;;21.60;49.30;;;;;;4744955;58;20120;-26
2023/04/10 16:34:01;;;;;;;;;;;21.50;49.60;;;;;;4749782;55;20124;-25
2023/04/10 16:39:01;;;;;;;;;;;21.50;49.70;;;;;;4825914;55;20343;-24
2023/04/10 16:44:02;;;;;;;;;;;21.50;49.80;;;;;;4786037;55;20057;-22
2023/04/10 16:49:03;;;;;;;;;;;21.50;49.90;;;;;;4763230;55;20125;-22
2023/04/10 16:54:03;;;;;;;;;;;21.50;50.00;;;;;;4779098;55;20060;-26
2023/04/10 16:59:04;;;;;;;;;;;21.50;50.10;;;;;;4747447;55;20108;-25
2023/04/10 17:04:06;;;;;;;;;;;21.40;50.10;;;;;;4773932;55;20072;-26
2023/04/10 17:09:07;;;;;;;;;;;21.40;50.20;;;;;;4773229;55;20072;-31
2023/04/10 17:14:08;;;;;;;;;;;21.40;50.30;;;;;;4797226;55;20092;-28
2023/04/10 17:19:09;;;;;;;;;;;21.40;50.30;;;;;;4766933;55;20073;-27
2023/04/10 17:24:10;;;;;;;;;;;21.40;50.40;;;;;;4791319;55;20365;-26
2023/04/10 17:29:11;;;;;;;;;;;21.40;50.30;;;;;;4752801;55;20101;-27
2023/04/10 17:34:12;;;;;;;;;;;21.40;50.40;;;;;;4772552;55;20129;-29
2023/04/10 17:39:12;;;;;;;;;;;21.40;50.50;;;;;;4774823;55;20350;-25
2023/04/10 17:44:13;;;;;;;;;;;21.40;50.50;;;;;;4744703;58;20113;-23
2023/04/10 17:49:14;;;;;;;;;;;21.40;50.60;;;;;;4759770;55;20306;-23
2023/04/10 17:54:14;;;;;;;;;;;21.40;51.30;;;;;;4774754;55;20331;-27
2023/04/10 17:59:15;;;;;;;;;;;21.30;50.60;;;;;;4784473;55;20076;-27
2023/04/10 18:04:16;;;;;;;;;;;21.30;50.60;;;;;;4744964;56;20148;-27
2023/04/10 18:09:16;;;;;;;;;;;21.30;50.70;;;;;;4750998;55;20112;-22
2023/04/10 18:14:17;;;;;;;;;;;21.30;50.70;;;;;;4804726;55;20143;-28
2023/04/10 18:19:18;;;;;;;;;;;21.30;50.80;;;;;;4770106;55;20116;-29
2023/04/10 18:24:19;;;;;;;;;;;21.30;50.80;;;;;;4763368;55;20297;-31
2023/04/10 18:29:25;;;;;;;;;;;21.30;50.80;;;;;;4779970;55;20068;-29
2023/04/10 18:34:28;;;;;;;;;;;21.30;50.90;;;;;;4875212;55;20053;-28
2023/04/10 18:39:28;;;;;;;;;;;21.30;50.90;;;;;;4779642;55;20079;-28
2023/04/10 18:44:30;;;;;;;;;;;21.30;50.90;;;;;;4872938;55;20148;-28
2023/04/10 18:49:31;;;;;;;;;;;21.30;51.00;;;;;;4811293;55;20104;-29
2023/04/10 18:54:34;;;;;;;;;;;21.30;51.00;;;;;;4746397;58;20323;-27
2023/04/10 18:59:36;;;;;;;;;;;21.30;51.10;;;;;;4763602;55;20541;-29
2023/04/10 19:04:36;;;;;;;;;;;21.30;51.10;;;;;;4801024;55;20442;-30
2023/04/10 19:09:37;;;;;;;;;;;21.20;51.10;;;;;;4757286;55;20418;-28
2023/04/10 19:14:38;;;;;;;;;;;21.30;51.20;;;;;;4792107;55;20068;-28
2023/04/10 19:19:38;;;;;;;;;;;21.20;51.20;;;;;;4774520;55;20164;-27
2023/04/10 19:24:39;;;;;;;;;;;21.30;51.60;;;;;;4792338;55;20331;-29
2023/04/10 19:29:40;;;;;;;;;;;21.20;51.20;;;;;;4827978;55;20067;-26
2023/04/10 19:34:40;;;;;;;;;;;21.20;51.20;;;;;;4787996;55;20065;-29
2023/04/10 19:39:41;;;;;;;;;;;21.20;51.90;;;;;;4857658;55;20343;-26
2023/04/10 19:44:41;;;;;;;;;;;21.20;51.30;;;;;;4870626;55;20076;-27
2023/04/10 19:49:43;;;;;;;;;;;21.20;51.30;;;;;;4746396;55;20056;-27
2023/04/10 19:54:45;;;;;;;;;;;21.20;51.30;;;;;;4746209;58;20369;-29
2023/04/10 19:59:46;;;;;;;;;;;21.20;51.30;;;;;;4746050;58;20298;-26
2023/04/10 20:04:46;;;;;;;;;;;21.20;51.40;;;;;;4760657;55;20156;-27
2023/04/10 20:09:47;;;;;;;;;;;21.20;50.90;;;;;;4746730;58;20302;-27
2023/04/10 20:14:48;;;;;;;;;;;21.20;51.40;;;;;;4746397;58;20076;-27
2023/04/10 20:19:48;;;;;;;;;;;21.20;51.40;;;;;;4746253;58;20113;-29
2023/04/10 20:24:49;;;;;;;;;;;21.20;51.40;;;;;;4747095;55;20108;-28
2023/04/10 20:29:50;;;;;;;;;;;21.20;51.50;;;;;;4747217;58;20266;-27
2023/04/10 20:34:50;;;;;;;;;;;21.10;51.40;;;;;;4796023;55;20168;-28
2023/04/10 20:39:51;;;;;;;;;;;21.20;51.50;;;;;;4748004;55;20057;-23
2023/04/10 20:44:52;;;;;;;;;;;21.20;51.60;;;;;;4790993;55;20097;-30
2023/04/10 20:49:53;;;;;;;;;;;21.20;51.50;;;;;;4746924;55;20286;-27
2023/04/10 20:54:54;;;;;;;;;;;21.10;51.40;;;;;;4801780;55;20080;-32
2023/04/10 20:59:54;;;;;;;;;;;21.10;51.50;;;;;;4832462;55;20323;-29
2023/04/10 21:04:55;;;;;;;;;;;21.10;51.50;;;;;;4746661;58;20140;-28
2023/04/10 21:09:56;;;;;;;;;;;21.10;51.50;;;;;;4770033;55;20155;-29
2023/04/10 21:14:56;;;;;;;;;;;21.10;51.50;;;;;;4746853;58;20060;-29
2023/04/10 21:19:58;;;;;;;;;;;21.10;51.50;;;;;;4745221;55;20061;-29
2023/04/10 21:24:59;;;;;;;;;;;21.10;51.50;;;;;;4746808;58;20278;-28
2023/04/10 21:29:59;;;;;;;;;;;21.10;51.50;;;;;;4877352;55;20274;-28
2023/04/10 21:35:03;;;;;;;;;;;21.10;51.60;;;;;;4746503;58;20132;-29
2023/04/10 21:40:07;;;;;;;;;;;21.10;51.50;;;;;;4747593;55;20077;-29
2023/04/10 21:45:08;;;;;;;;;;;21.10;51.50;;;;;;4774994;55;20076;-28
2023/04/10 21:50:09;;;;;;;;;;;21.10;51.50;;;;;;4746535;58;20064;-27
2023/04/10 21:55:10;;;;;;;;;;;21.10;51.50;;;;;;4746912;58;20068;-29
2023/04/10 22:00:12;;;;;;;;;;;21.10;51.50;;;;;;4768101;55;20068;-28
2023/04/10 22:05:13;;;;;;;;;;;21.10;51.50;;;;;;4853817;55;20342;-29
2023/04/10 22:10:13;;;;;;;;;;;21.10;51.60;;;;;;4775295;55;20176;-31
2023/04/10 22:15:14;;;;;;;;;;;21.10;51.60;;;;;;4772239;55;20278;-25
2023/04/10 22:20:15;;;;;;;;;;;21.10;51.50;;;;;;4802589;55;20072;-27
2023/04/10 22:25:16;;;;;;;;;;;21.10;51.60;;;;;;4746406;58;20327;-24
2023/04/10 22:30:16;;;;;;;;;;;21.10;51.50;;;;;;4746521;58;20116;-28
2023/04/10 22:35:17;;;;;;;;;;;21.10;51.60;;;;;;4900833;55;20358;-29
2023/04/10 22:40:18;;;;;;;;;;;21.10;51.60;;;;;;4803548;55;20204;-27
2023/04/10 22:45:18;;;;;;;;;;;21.10;51.50;;;;;;4768215;55;20069;-28
2023/04/10 22:50:19;;;;;;;;;;;21.00;51.50;;;;;;5026221;55;20394;-28
2023/04/10 22:55:22;;;;;;;;;;;21.00;51.50;;;;;;4764421;55;20120;-27
2023/04/10 23:00:25;;;;;;;;;;;21.10;51.60;;;;;;4833226;55;20302;-26
2023/04/10 23:05:26;;;;;;;;;;;21.00;51.50;;;;;;4918865;55;20053;-30
2023/04/10 23:10:27;;;;;;;;;;;21.00;51.50;;;;;;4867892;55;20302;-30
2023/04/10 23:15:27;;;;;;;;;;;21.00;51.50;;;;;;4772026;55;20073;-29
2023/04/10 23:20:28;;;;;;;;;;;21.00;51.50;;;;;;4745815;58;20119;-28
2023/04/10 23:25:29;;;;;;;;;;;21.00;52.20;;;;;;4773392;55;20372;-27
2023/04/10 23:30:30;;;;;;;;;;;21.00;51.50;;;;;;4746604;58;20274;-28
2023/04/10 23:35:30;;;;;;;;;;;21.00;51.50;;;;;;4746020;58;20130;-28
2023/04/10 23:40:34;;;;;;;;;;;21.00;51.50;;;;;;4775377;55;20284;-27
2023/04/10 23:45:34;;;;;;;;;;;21.00;51.50;;;;;;4788384;55;20099;-30
2023/04/10 23:50:35;;;;;;;;;;;21.00;51.60;;;;;;4756665;55;20327;-29
2023/04/10 23:55:37;;;;;;;;;;;21.00;51.40;;;;;;4844567;55;20096;-29
